Time;durP1;ratioP1;P1;durP2;ratioP2;P2;SDS_P1;SDS_P2;PMS_P1;PMS_P2;Temp;Humidity;BMP_temperature;BMP_pressure;BME280_temperature;BME280_humidity;BME280_pressure;Samples;Min_cycle;Max_cycle;Signal;HPM_P1;HPM_P2
2024/04/23 00:01:47;;;;;;;1.13;0.50;;;-0.30;99.90;;;;;;5235638;27;20237;-66
2024/04/23 00:04:13;;;;;;;2.70;0.63;;;-0.40;99.90;;;;;;5241461;27;20245;-67
2024/04/23 00:06:38;;;;;;;2.30;0.67;;;-0.50;99.90;;;;;;5239085;27;20730;-66
2024/04/23 00:09:04;;;;;;;0.67;0.53;;;-0.50;99.90;;;;;;5228439;27;20280;-66
2024/04/23 00:11:30;;;;;;;1.37;1.10;;;-0.50;99.90;;;;;;5240407;27;20246;-65
2024/04/23 00:13:57;;;;;;;2.37;0.73;;;-0.50;99.90;;;;;;5241157;27;20234;-66
2024/04/23 00:16:23;;;;;;;1.07;0.87;;;-0.50;99.90;;;;;;5240974;27;20234;-66
2024/04/23 00:18:49;;;;;;;2.10;0.50;;;-0.50;99.90;;;;;;5241275;27;20233;-65
2024/04/23 00:21:14;;;;;;;0.70;0.70;;;-0.50;99.90;;;;;;5240501;27;20770;-66
2024/04/23 00:23:40;;;;;;;0.37;0.33;;;-0.40;99.90;;;;;;5240015;27;20284;-66
2024/04/23 00:26:05;;;;;;;0.57;0.57;;;-0.40;99.90;;;;;;5232556;27;20633;-66
2024/04/23 00:28:31;;;;;;;0.47;0.47;;;-0.40;99.90;;;;;;5234813;27;20272;-66
2024/04/23 00:30:56;;;;;;;0.20;0.20;;;-0.40;99.90;;;;;;5213310;27;20654;-65
2024/04/23 00:33:22;;;;;;;0.33;0.30;;;-0.50;99.90;;;;;;5240881;27;20640;-66
2024/04/23 00:35:47;;;;;;;0.63;0.43;;;-0.60;99.90;;;;;;5241004;27;20774;-66
2024/04/23 00:38:13;;;;;;;0.53;0.50;;;-0.60;99.90;;;;;;5240928;27;20268;-66
2024/04/23 00:40:39;;;;;;;0.43;0.43;;;-0.70;99.90;;;;;;5237887;27;20596;-65
2024/04/23 00:43:04;;;;;;;0.77;0.53;;;-0.70;99.90;;;;;;5229301;27;20230;-66
2024/04/23 00:45:42;;;;;;;0.50;0.50;;;-0.80;99.90;;;;;;5241024;27;20237;-64
2024/04/23 00:48:08;;;;;;;0.30;0.30;;;-0.80;99.90;;;;;;5240751;27;20230;-66
2024/04/23 00:50:34;;;;;;;1.07;0.70;;;-0.90;99.90;;;;;;5239845;27;20297;-66
2024/04/23 00:53:00;;;;;;;0.60;0.60;;;-0.90;99.90;;;;;;5240671;27;20238;-67
2024/04/23 00:55:27;;;;;;;1.27;0.80;;;-0.90;99.90;;;;;;5240469;27;20617;-66
2024/04/23 00:57:52;;;;;;;1.17;0.80;;;-0.90;99.90;;;;;;5224674;27;20789;-67
2024/04/23 01:00:18;;;;;;;0.10;0.10;;;-0.90;99.90;;;;;;5239812;27;20934;-66
2024/04/23 01:02:44;;;;;;;0.40;0.40;;;-0.90;99.90;;;;;;5226499;27;20234;-66
2024/04/23 01:05:10;;;;;;;0.63;0.63;;;-1.00;99.90;;;;;;5240445;27;20341;-67
2024/04/23 01:07:36;;;;;;;0.53;0.53;;;-1.00;99.90;;;;;;5239945;27;20245;-66
2024/04/23 01:10:02;;;;;;;1.30;0.90;;;-1.00;99.90;;;;;;5225847;27;20604;-67
2024/04/23 01:12:27;;;;;;;0.20;0.20;;;-0.90;99.90;;;;;;5226488;27;20666;-65
2024/04/23 01:14:53;;;;;;;1.20;1.10;;;-0.90;99.90;;;;;;5239669;27;20233;-66
2024/04/23 01:17:20;;;;;;;0.63;0.50;;;-0.90;99.90;;;;;;5226607;27;20293;-66
2024/04/23 01:19:51;;;;;;;1.17;0.83;;;-1.00;99.90;;;;;;5264683;27;20241;-66
2024/04/23 01:22:24;;;;;;;0.50;0.50;;;-1.00;99.90;;;;;;5239896;27;20858;-66
2024/04/23 01:24:54;;;;;;;0.83;0.40;;;-1.00;99.90;;;;;;5240044;27;22149;-67
2024/04/23 01:27:20;;;;;;;1.57;0.93;;;-1.10;99.90;;;;;;5228732;27;20834;-66
2024/04/23 01:29:46;;;;;;;0.70;0.53;;;-1.10;99.90;;;;;;5223431;27;20235;-66
2024/04/23 01:32:12;;;;;;;0.40;0.40;;;-1.10;99.90;;;;;;5230249;27;20283;-65
2024/04/23 01:34:38;;;;;;;0.70;0.70;;;-1.10;99.90;;;;;;5235621;27;20621;-66
2024/04/23 01:37:06;;;;;;;0.83;0.60;;;-1.10;99.90;;;;;;5240021;27;20290;-65
2024/04/23 01:39:32;;;;;;;0.40;0.40;;;-1.10;99.90;;;;;;5239514;27;20529;-66
2024/04/23 01:41:58;;;;;;;0.60;0.60;;;-1.10;99.90;;;;;;5225486;27;20272;-65
2024/04/23 01:44:25;;;;;;;2.83;0.50;;;-1.20;99.90;;;;;;5239713;27;20230;-66
2024/04/23 01:46:52;;;;;;;0.67;0.57;;;-1.20;99.90;;;;;;5225940;27;20237;-67
2024/04/23 01:49:18;;;;;;;0.23;0.23;;;-1.30;99.90;;;;;;5239662;27;20237;-66
2024/04/23 01:51:44;;;;;;;0.57;0.57;;;-1.20;99.90;;;;;;5239142;27;20268;-66
2024/04/23 01:54:09;;;;;;;1.17;0.63;;;-1.30;99.90;;;;;;5239448;27;20230;-66
2024/04/23 01:56:35;;;;;;;1.27;0.47;;;-1.40;99.90;;;;;;5225713;27;20684;-66
2024/04/23 01:59:01;;;;;;;1.17;1.07;;;-1.40;99.90;;;;;;5239332;27;20573;-66
2024/04/23 02:01:28;;;;;;;0.30;0.30;;;-1.40;99.90;;;;;;5237182;27;20360;-66
2024/04/23 02:03:54;;;;;;;0.30;0.30;;;-1.40;99.90;;;;;;5237718;27;20234;-66
2024/04/23 02:06:20;;;;;;;0.90;0.77;;;-1.40;99.90;;;;;;5239585;27;20788;-66
2024/04/23 02:08:46;;;;;;;0.67;0.47;;;-1.40;99.90;;;;;;5239230;27;20285;-66
2024/04/23 02:11:12;;;;;;;0.10;0.10;;;-1.40;99.90;;;;;;5238863;27;20242;-67
2024/04/23 02:13:37;;;;;;;0.27;0.27;;;-1.30;99.90;;;;;;5225168;27;20230;-66
2024/04/23 02:16:03;;;;;;;0.50;0.50;;;-1.30;99.90;;;;;;5238945;27;20596;-66
2024/04/23 02:18:29;;;;;;;0.50;0.50;;;-1.30;99.90;;;;;;5239077;27;20233;-65
2024/04/23 02:20:54;;;;;;;0.83;0.40;;;-1.30;99.90;;;;;;5238155;27;20238;-66
2024/04/23 02:23:20;;;;;;;0.40;0.40;;;-1.30;99.90;;;;;;5238991;27;20238;-67
2024/04/23 02:25:45;;;;;;;0.63;0.47;;;-1.40;99.90;;;;;;5239047;27;20242;-66
2024/04/23 02:28:11;;;;;;;0.27;0.27;;;-1.50;99.90;;;;;;5238930;27;20346;-65
2024/04/23 02:30:37;;;;;;;0.77;0.77;;;-1.50;99.90;;;;;;5238516;27;20242;-66
2024/04/23 02:33:03;;;;;;;0.20;0.20;;;-1.60;99.90;;;;;;5241762;27;20234;-66
2024/04/23 02:35:29;;;;;;;0.20;0.20;;;-1.60;99.90;;;;;;5242366;27;20372;-66
2024/04/23 02:37:55;;;;;;;0.30;0.30;;;-1.60;99.90;;;;;;5241796;27;20234;-65
2024/04/23 02:40:20;;;;;;;0.30;0.30;;;-1.60;99.90;;;;;;5241578;27;20257;-66
2024/04/23 02:42:46;;;;;;;0.83;0.83;;;-1.60;99.90;;;;;;5242119;27;20289;-66
2024/04/23 02:45:11;;;;;;;0.30;0.30;;;-1.70;99.90;;;;;;5233588;27;20281;-66
2024/04/23 02:47:37;;;;;;;0.97;0.83;;;-1.70;99.90;;;;;;5237665;27;20277;-65
2024/04/23 02:50:03;;;;;;;0.40;0.40;;;-1.70;99.90;;;;;;5241588;27;20241;-66
2024/04/23 02:52:28;;;;;;;0.47;0.47;;;-1.70;99.90;;;;;;5234462;27;20336;-67
2024/04/23 02:54:54;;;;;;;0.73;0.57;;;-1.70;99.90;;;;;;5241542;27;20233;-67
2024/04/23 02:57:19;;;;;;;0.80;0.80;;;-1.70;99.90;;;;;;5242061;27;20574;-66
2024/04/23 02:59:45;;;;;;;0.27;0.27;;;-1.60;99.90;;;;;;5238297;27;20238;-66
2024/04/23 03:02:11;;;;;;;0.77;0.43;;;-1.60;99.90;;;;;;5229315;27;20785;-67
2024/04/23 03:04:36;;;;;;;0.30;0.30;;;-1.70;99.90;;;;;;5226266;27;20242;-66
2024/04/23 03:07:02;;;;;;;0.27;0.27;;;-1.70;99.90;;;;;;5241478;27;20284;-66
2024/04/23 03:09:28;;;;;;;1.03;0.77;;;-1.70;99.90;;;;;;5241752;27;20292;-66
2024/04/23 03:11:54;;;;;;;1.33;0.70;;;-1.80;99.90;;;;;;5241258;27;20233;-66
2024/04/23 03:14:20;;;;;;;0.97;0.70;;;-1.80;99.90;;;;;;5241744;27;20238;-66
2024/04/23 03:16:45;;;;;;;0.33;0.33;;;-1.90;99.90;;;;;;5241634;27;20589;-66
2024/04/23 03:19:11;;;;;;;0.30;0.30;;;-1.90;99.90;;;;;;5241681;27;20245;-66
2024/04/23 03:21:51;;;;;;;0.17;0.17;;;-1.90;99.90;;;;;;5227000;27;20830;-66
2024/04/23 03:24:16;;;;;;;0.53;0.20;;;-2.00;99.90;;;;;;5228303;27;20241;-66
2024/04/23 03:26:42;;;;;;;0.33;0.33;;;-2.00;99.90;;;;;;5227493;27;20592;-66
2024/04/23 03:29:07;;;;;;;0.10;0.10;;;-2.00;99.90;;;;;;5241529;27;20234;-66
2024/04/23 03:31:33;;;;;;;1.13;0.47;;;-2.00;99.90;;;;;;5241049;27;20233;-67
2024/04/23 03:33:58;;;;;;;0.20;0.20;;;-2.00;99.90;;;;;;5227778;27;20241;-66
2024/04/23 03:36:24;;;;;;;1.43;0.60;;;-2.00;99.90;;;;;;5241610;27;20230;-67
2024/04/23 03:38:49;;;;;;;0.33;0.33;;;-2.10;99.90;;;;;;5240645;27;20308;-67
2024/04/23 03:41:15;;;;;;;0.30;0.30;;;-2.00;99.90;;;;;;5240796;27;20234;-67
2024/04/23 03:43:40;;;;;;;0.33;0.33;;;-2.00;99.90;;;;;;5240061;27;20234;-67
2024/04/23 03:46:06;;;;;;;0.20;0.20;;;-2.00;99.90;;;;;;5241427;27;20253;-66
2024/04/23 03:48:32;;;;;;;0.10;0.10;;;-2.00;99.90;;;;;;5241291;27;20280;-67
2024/04/23 03:50:57;;;;;;;0.40;0.30;;;-2.10;99.90;;;;;;5226828;27;20241;-67
2024/04/23 03:53:23;;;;;;;0.50;0.50;;;-2.20;99.90;;;;;;5227689;27;20273;-67
2024/04/23 03:55:48;;;;;;;1.50;0.63;;;-2.20;99.90;;;;;;5240928;27;20587;-66
2024/04/23 03:58:14;;;;;;;0.20;0.20;;;-2.20;99.90;;;;;;5230574;27;20286;-67
2024/04/23 04:00:39;;;;;;;0.30;0.30;;;-2.30;99.90;;;;;;5240557;27;20687;-67
2024/04/23 04:06:06;;;;;;;0.23;0.23;;;-2.20;99.90;;;;;;5240923;27;20317;-67
2024/04/23 04:08:33;;;;;;;0.10;0.10;;;-2.30;99.90;;;;;;5241055;27;20485;-67
2024/04/23 04:10:59;;;;;;;0.10;0.10;;;-2.20;99.90;;;;;;5240682;27;21012;-66
2024/04/23 04:13:25;;;;;;;0.37;0.37;;;-2.30;99.90;;;;;;5241022;27;20465;-66
2024/04/23 04:15:51;;;;;;;0.13;0.10;;;-2.30;99.90;;;;;;5240992;27;20461;-66
2024/04/23 04:18:17;;;;;;;0.63;0.63;;;-2.30;99.90;;;;;;5241542;27;20277;-67
2024/04/23 04:20:42;;;;;;;0.53;0.40;;;-2.30;99.90;;;;;;5224158;27;20348;-67
2024/04/23 04:23:08;;;;;;;0.30;0.20;;;-2.30;99.90;;;;;;5215954;27;20775;-67
2024/04/23 04:25:34;;;;;;;0.10;0.10;;;-2.40;99.90;;;;;;5226463;27;20261;-67
2024/04/23 04:27:59;;;;;;;0.20;0.20;;;-2.30;99.90;;;;;;5239372;27;20603;-67
2024/04/23 04:30:25;;;;;;;0.40;0.40;;;-2.30;99.90;;;;;;5239303;27;20242;-67
2024/04/23 04:32:50;;;;;;;1.07;0.63;;;-2.30;99.90;;;;;;5239607;27;20230;-66
2024/04/23 04:35:16;;;;;;;0.70;0.60;;;-2.20;99.90;;;;;;5237849;27;20690;-67
2024/04/23 04:37:42;;;;;;;1.27;1.00;;;-2.20;99.90;;;;;;5239590;27;20233;-66
2024/04/23 04:40:07;;;;;;;0.93;0.50;;;-2.20;99.90;;;;;;5239302;27;20250;-66
2024/04/23 04:42:33;;;;;;;0.83;0.50;;;-2.30;99.90;;;;;;5239614;27;20241;-68
2024/04/23 04:44:58;;;;;;;0.23;0.23;;;-2.30;99.90;;;;;;5240406;27;20234;-65
2024/04/23 04:47:24;;;;;;;0.17;0.17;;;-2.20;99.90;;;;;;5240162;27;20345;-66
2024/04/23 04:49:49;;;;;;;0.90;0.90;;;-2.20;99.90;;;;;;5225473;27;20738;-66
2024/04/23 04:52:15;;;;;;;1.20;1.10;;;-2.20;99.90;;;;;;5239233;27;20241;-67
2024/04/23 04:54:41;;;;;;;0.40;0.40;;;-2.10;99.90;;;;;;5238835;27;20284;-67
2024/04/23 04:57:06;;;;;;;0.30;0.30;;;-2.10;99.90;;;;;;5239995;27;20577;-66
2024/04/23 04:59:32;;;;;;;0.47;0.47;;;-2.10;99.90;;;;;;5239068;27;20777;-66
2024/04/23 05:01:57;;;;;;;1.40;0.87;;;-2.10;99.90;;;;;;5238770;27;20856;-67
2024/04/23 05:04:23;;;;;;;1.03;0.53;;;-2.00;99.90;;;;;;5225815;27;20276;-66
2024/04/23 05:06:48;;;;;;;0.97;0.97;;;-2.00;99.90;;;;;;5239002;27;20597;-66
2024/04/23 05:09:14;;;;;;;0.50;0.50;;;-2.00;99.90;;;;;;5225502;27;20241;-66
2024/04/23 05:11:42;;;;;;;1.80;1.00;;;-2.00;99.90;;;;;;5236979;27;20331;-67
2024/04/23 05:14:08;;;;;;;0.73;0.63;;;-2.00;99.90;;;;;;5239571;27;20237;-67
2024/04/23 05:16:34;;;;;;;1.37;0.43;;;-2.00;99.90;;;;;;5225007;27;20530;-68
2024/04/23 05:19:01;;;;;;;0.20;0.20;;;-1.90;99.90;;;;;;5229543;27;20282;-66
2024/04/23 05:21:27;;;;;;;0.60;0.60;;;-1.90;99.90;;;;;;5230202;27;20533;-67
2024/04/23 05:23:52;;;;;;;0.50;0.50;;;-1.80;99.90;;;;;;5239010;27;20477;-67
2024/04/23 05:26:18;;;;;;;0.70;0.70;;;-1.70;99.90;;;;;;5225433;27;20525;-66
2024/04/23 05:28:43;;;;;;;0.10;0.10;;;-1.60;99.90;;;;;;5239018;27;20245;-67
2024/04/23 05:33:53;;;;;;;0.27;0.27;;;-1.40;99.90;;;;;;5225029;27;20272;-66
2024/04/23 05:36:22;;;;;;;0.87;0.87;;;-1.30;99.90;;;;;;5238687;27;20549;-66
2024/04/23 05:38:48;;;;;;;0.97;0.87;;;-1.20;99.90;;;;;;5238649;27;20718;-67
2024/04/23 05:41:14;;;;;;;1.17;0.83;;;-1.10;99.90;;;;;;5238440;27;20485;-68
2024/04/23 05:43:39;;;;;;;0.20;0.20;;;-0.90;99.90;;;;;;5224473;27;20233;-66
2024/04/23 05:46:05;;;;;;;0.77;0.77;;;-0.70;99.90;;;;;;5237992;27;20234;-65
2024/04/23 05:49:08;;;;;;;0.20;0.20;;;-0.60;99.90;;;;;;5238477;27;20237;-66
2024/04/23 05:52:11;;;;;;;1.43;0.57;;;-0.40;99.90;;;;;;5232319;27;20229;-65
2024/04/23 05:55:14;;;;;;;0.50;0.50;;;-0.20;99.90;;;;;;5232840;27;20238;-66
2024/04/23 05:57:40;;;;;;;0.83;0.67;;;0.00;99.90;;;;;;5237018;27;20241;-65
2024/04/23 06:00:06;;;;;;;0.77;0.67;;;0.20;99.90;;;;;;5233089;27;20238;-67
2024/04/23 06:02:31;;;;;;;2.10;0.90;;;0.40;99.90;;;;;;5223098;27;20233;-66
2024/04/23 06:04:57;;;;;;;0.50;0.37;;;0.50;99.90;;;;;;5238407;27;20336;-66
2024/04/23 06:07:22;;;;;;;1.03;0.83;;;0.60;99.90;;;;;;5237526;27;20276;-67
2024/04/23 06:09:48;;;;;;;2.80;0.57;;;0.60;99.90;;;;;;5224238;27;20289;-65
2024/04/23 06:12:13;;;;;;;0.90;0.63;;;0.70;99.90;;;;;;5237682;27;20273;-65
2024/04/23 06:14:43;;;;;;;0.40;0.40;;;0.80;99.90;;;;;;5210455;27;20247;-66
2024/04/23 06:17:28;;;;;;;16.90;1.43;;;0.90;99.90;;;;;;5224573;27;20769;-64
2024/04/23 06:19:54;;;;;;;0.67;0.67;;;1.20;99.90;;;;;;5235773;27;20295;-64
2024/04/23 06:22:22;;;;;;;0.90;0.60;;;1.40;99.90;;;;;;5238170;27;20264;-64
2024/04/23 06:24:50;;;;;;;0.60;0.47;;;1.50;99.90;;;;;;5221260;27;20242;-65
2024/04/23 06:27:17;;;;;;;1.90;0.73;;;1.70;99.90;;;;;;5214640;27;20603;-65
2024/04/23 06:29:43;;;;;;;0.53;0.53;;;2.00;99.90;;;;;;5223937;27;20238;-65
2024/04/23 06:32:09;;;;;;;1.80;1.27;;;2.30;99.90;;;;;;5215764;27;20764;-67
2024/04/23 06:34:34;;;;;;;2.53;1.40;;;2.50;99.90;;;;;;5218356;27;20270;-66
2024/04/23 06:37:00;;;;;;;0.57;0.57;;;2.80;99.90;;;;;;5238554;27;20784;-65
2024/04/23 06:39:26;;;;;;;1.47;1.13;;;2.90;99.90;;;;;;5238247;27;20280;-65
2024/04/23 06:41:52;;;;;;;2.37;1.30;;;3.10;99.90;;;;;;5233648;27;20369;-64
2024/04/23 06:44:17;;;;;;;2.53;1.57;;;3.50;99.90;;;;;;5228176;27;20241;-65
2024/04/23 06:46:43;;;;;;;1.63;1.03;;;3.80;99.90;;;;;;5235430;27;20772;-64
2024/04/23 06:49:08;;;;;;;2.67;1.60;;;4.10;99.90;;;;;;5212763;27;20230;-63
2024/04/23 06:51:34;;;;;;;1.57;1.30;;;4.30;99.90;;;;;;5237318;27;20288;-65
2024/04/23 06:54:00;;;;;;;1.17;1.03;;;4.70;99.90;;;;;;5228695;27;20243;-65
2024/04/23 06:56:25;;;;;;;4.70;2.33;;;4.90;99.90;;;;;;5218529;27;20318;-66
2024/04/23 06:58:51;;;;;;;2.10;0.97;;;5.30;99.90;;;;;;5222127;27;20612;-64
2024/04/23 07:01:16;;;;;;;1.47;1.10;;;5.70;99.90;;;;;;5237469;27;20234;-65
2024/04/23 07:03:42;;;;;;;3.00;1.43;;;6.00;99.90;;;;;;5237528;27;20275;-65
2024/04/23 07:06:07;;;;;;;1.67;1.10;;;6.20;99.90;;;;;;5238142;27;20355;-65
2024/04/23 07:08:33;;;;;;;1.80;1.27;;;6.50;99.90;;;;;;5237721;27;20230;-65
2024/04/23 07:10:59;;;;;;;2.20;1.20;;;6.80;99.90;;;;;;5236646;27;20238;-65
2024/04/23 07:13:24;;;;;;;3.07;1.20;;;7.20;99.90;;;;;;5237717;27;20691;-65
2024/04/23 07:15:50;;;;;;;1.53;1.27;;;7.50;99.90;;;;;;5237311;27;20352;-66
2024/04/23 07:18:15;;;;;;;4.60;1.57;;;7.60;99.90;;;;;;5239732;27;20234;-65
2024/04/23 07:20:41;;;;;;;1.47;1.17;;;7.60;99.90;;;;;;5239859;27;20234;-65
2024/04/23 07:23:07;;;;;;;2.00;1.20;;;7.70;99.90;;;;;;5241221;27;20362;-65
2024/04/23 07:25:32;;;;;;;1.50;1.07;;;8.00;99.90;;;;;;5226752;27;20276;-65
2024/04/23 07:27:58;;;;;;;3.13;1.47;;;8.10;99.90;;;;;;5240791;27;20272;-67
2024/04/23 07:30:26;;;;;;;2.93;1.10;;;8.10;99.90;;;;;;5240092;27;20697;-65
2024/04/23 07:32:55;;;;;;;1.97;1.20;;;8.40;99.90;;;;;;5263031;27;20585;-66
2024/04/23 07:35:22;;;;;;;1.40;1.00;;;8.10;99.90;;;;;;5231872;27;20246;-66
2024/04/23 07:37:47;;;;;;;1.23;0.93;;;8.20;99.90;;;;;;5226770;27;20681;-65
2024/04/23 07:40:13;;;;;;;1.17;0.67;;;8.60;99.90;;;;;;5240249;27;20284;-66
2024/04/23 07:42:38;;;;;;;1.70;0.73;;;8.90;99.90;;;;;;5240777;27;20347;-67
2024/04/23 07:45:04;;;;;;;2.07;0.90;;;9.30;99.90;;;;;;5220048;27;20281;-66
2024/04/23 07:47:30;;;;;;;0.90;0.70;;;9.80;99.90;;;;;;5220178;27;20276;-65
2024/04/23 07:49:56;;;;;;;1.00;0.70;;;10.20;99.90;;;;;;5234955;27;20572;-65
2024/04/23 07:52:21;;;;;;;1.37;1.00;;;10.50;99.90;;;;;;5231646;27;20800;-66
2024/04/23 07:54:50;;;;;;;1.10;0.87;;;10.40;99.90;;;;;;5226379;27;20230;-67
2024/04/23 07:57:17;;;;;;;2.60;1.20;;;10.80;99.90;;;;;;5240646;27;20341;-66
2024/04/23 07:59:43;;;;;;;2.00;0.90;;;11.10;99.90;;;;;;5237943;27;20817;-65
2024/04/23 08:02:08;;;;;;;1.37;1.17;;;11.40;99.90;;;;;;5238204;27;20353;-65
2024/04/23 08:04:34;;;;;;;1.43;0.90;;;11.50;99.90;;;;;;5225261;27;20238;-65
2024/04/23 08:06:59;;;;;;;1.67;0.80;;;11.40;99.90;;;;;;5239169;27;20288;-66
2024/04/23 08:09:25;;;;;;;2.00;1.03;;;11.80;99.90;;;;;;5239654;27;20374;-67
2024/04/23 08:11:50;;;;;;;2.20;1.40;;;12.30;99.90;;;;;;5239434;27;20347;-66
2024/04/23 08:14:16;;;;;;;1.60;1.00;;;12.50;99.90;;;;;;5240232;27;20718;-66
2024/04/23 08:16:42;;;;;;;1.70;0.90;;;13.00;99.90;;;;;;5238993;27;20284;-66
2024/04/23 08:19:08;;;;;;;1.67;0.70;;;13.30;99.90;;;;;;5220617;27;20841;-66
2024/04/23 08:21:36;;;;;;;2.27;1.43;;;13.30;99.90;;;;;;5233978;27;20234;-65
2024/04/23 08:24:02;;;;;;;2.00;1.10;;;13.70;99.90;;;;;;5240761;27;20289;-66
2024/04/23 08:26:28;;;;;;;3.03;1.27;;;13.60;99.90;;;;;;5228309;27;20239;-65
2024/04/23 08:28:54;;;;;;;2.00;1.00;;;14.00;99.90;;;;;;5235904;27;20237;-66
2024/04/23 08:31:20;;;;;;;3.60;1.30;;;14.10;99.90;;;;;;5239248;27;20238;-67
2024/04/23 08:33:46;;;;;;;1.90;0.90;;;14.30;99.90;;;;;;5239757;27;20250;-66
2024/04/23 08:36:11;;;;;;;1.00;0.90;;;14.10;99.90;;;;;;5240077;27;20280;-65
2024/04/23 08:38:37;;;;;;;1.30;0.90;;;14.40;99.90;;;;;;5239442;27;20575;-66
2024/04/23 08:41:04;;;;;;;1.50;0.83;;;14.70;99.90;;;;;;5239550;27;20238;-66
2024/04/23 08:43:40;;;;;;;2.07;0.90;;;15.40;99.90;;;;;;5240208;27;20238;-66
2024/04/23 08:46:07;;;;;;;1.30;0.80;;;15.40;99.90;;;;;;5227650;27;20284;-65
2024/04/23 08:48:34;;;;;;;1.77;0.80;;;15.10;99.90;;;;;;5240143;27;20340;-64
2024/04/23 08:51:00;;;;;;;2.00;0.97;;;15.30;99.90;;;;;;5225489;27;20253;-65
2024/04/23 08:53:27;;;;;;;1.63;1.00;;;15.70;99.90;;;;;;5228824;27;20290;-66
2024/04/23 08:55:57;;;;;;;1.73;0.90;;;15.70;99.90;;;;;;5237685;27;20383;-65
2024/04/23 08:58:23;;;;;;;1.10;0.77;;;15.90;99.90;;;;;;5239711;27;20279;-66
2024/04/23 09:00:50;;;;;;;1.40;0.90;;;15.80;99.90;;;;;;5238802;27;20242;-66
2024/04/23 09:03:17;;;;;;;1.63;0.83;;;15.40;99.90;;;;;;5239701;27;20344;-65
2024/04/23 09:05:44;;;;;;;2.30;1.37;;;15.20;99.90;;;;;;5239384;27;20739;-65
2024/04/23 09:08:11;;;;;;;3.43;1.37;;;14.80;99.80;;;;;;5238075;27;20634;-66
2024/04/23 09:10:40;;;;;;;2.30;1.00;;;14.60;99.90;;;;;;5225093;27;20250;-65
2024/04/23 09:13:06;;;;;;;0.90;0.70;;;14.30;99.90;;;;;;5238205;27;20230;-66
2024/04/23 09:15:31;;;;;;;1.50;0.80;;;14.40;99.90;;;;;;5239347;27;20233;-66
2024/04/23 09:17:57;;;;;;;1.37;0.73;;;14.60;99.90;;;;;;5239508;27;20234;-66
2024/04/23 09:20:23;;;;;;;2.67;1.10;;;14.50;99.90;;;;;;5238695;27;20321;-66
2024/04/23 09:22:52;;;;;;;1.73;0.97;;;13.90;99.90;;;;;;5239594;27;20246;-67
2024/04/23 09:25:19;;;;;;;1.57;0.90;;;13.20;99.90;;;;;;5229996;27;20283;-67
2024/04/23 09:27:45;;;;;;;2.00;0.87;;;12.10;99.90;;;;;;5233706;27;20233;-66
2024/04/23 09:30:22;;;;;;;1.43;0.87;;;11.50;99.90;;;;;;5226946;27;20595;-67
2024/04/23 09:33:00;;;;;;;1.87;0.90;;;11.10;99.90;;;;;;5225943;27;20284;-66
2024/04/23 09:35:26;;;;;;;1.73;0.90;;;11.00;99.90;;;;;;5239236;27;20245;-65
2024/04/23 09:37:51;;;;;;;1.20;0.80;;;11.80;99.90;;;;;;5238592;27;20344;-67
2024/04/23 09:40:17;;;;;;;2.47;0.80;;;12.70;99.90;;;;;;5229213;27;20616;-71
2024/04/23 09:42:42;;;;;;;1.77;1.03;;;13.20;99.90;;;;;;5231980;27;20344;-65
2024/04/23 09:45:11;;;;;;;1.87;0.87;;;13.60;99.90;;;;;;5225870;27;20280;-65
2024/04/23 09:47:43;;;;;;;1.83;1.03;;;14.80;99.90;;;;;;5237419;27;20253;-65
2024/04/23 09:50:11;;;;;;;1.93;0.80;;;15.60;99.90;;;;;;5236683;27;20829;-66
2024/04/23 09:52:38;;;;;;;3.70;0.97;;;15.30;98.70;;;;;;5238957;27;20238;-71
2024/04/23 09:55:04;;;;;;;1.20;0.90;;;15.20;99.40;;;;;;5239012;27;20352;-66
2024/04/23 09:57:30;;;;;;;1.77;0.77;;;15.70;99.90;;;;;;5239750;27;20242;-65
2024/04/23 09:59:56;;;;;;;0.80;0.70;;;15.70;99.50;;;;;;5233486;27;20272;-66
2024/04/23 10:02:28;;;;;;;0.80;0.80;;;16.00;98.90;;;;;;5230001;27;20299;-69
2024/04/23 10:05:07;;;;;;;2.00;1.00;;;16.10;97.20;;;;;;5235349;27;20297;-66
2024/04/23 10:07:58;;;;;;;1.43;0.80;;;16.50;96.00;;;;;;5232936;27;20237;-66
2024/04/23 10:10:37;;;;;;;1.63;0.90;;;16.60;96.20;;;;;;5238416;27;20234;-67
2024/04/23 10:13:05;;;;;;;1.40;0.80;;;17.00;94.70;;;;;;5225683;27;20249;-66
2024/04/23 10:15:52;;;;;;;3.57;1.70;;;17.30;93.00;;;;;;5236980;27;20234;-66
2024/04/23 10:18:45;;;;;;;1.50;0.73;;;16.90;93.50;;;;;;5228793;27;20230;-68
2024/04/23 10:21:20;;;;;;;2.07;1.23;;;16.70;94.40;;;;;;5226452;27;20245;-65
2024/04/23 10:23:47;;;;;;;1.40;0.80;;;16.30;92.70;;;;;;5239045;27;20248;-66
2024/04/23 10:26:14;;;;;;;1.30;0.77;;;16.30;92.30;;;;;;5238697;27;20332;-66
2024/04/23 10:28:41;;;;;;;1.27;0.83;;;17.10;94.00;;;;;;5237956;27;20265;-66
2024/04/23 10:31:08;;;;;;;1.67;0.73;;;17.10;90.30;;;;;;5218566;27;20246;-66
2024/04/23 10:33:35;;;;;;;0.60;0.60;;;16.60;90.50;;;;;;5232130;27;20607;-67
2024/04/23 10:36:03;;;;;;;1.97;0.90;;;16.70;92.00;;;;;;5228485;27;20293;-68
2024/04/23 10:38:33;;;;;;;1.80;1.00;;;16.90;91.40;;;;;;5216249;27;20234;-66
2024/04/23 10:40:59;;;;;;;2.43;1.00;;;16.80;91.70;;;;;;5237422;27;20642;-69
2024/04/23 10:43:27;;;;;;;1.33;0.80;;;17.10;87.90;;;;;;5219410;27;20351;-65
2024/04/23 10:45:52;;;;;;;1.33;0.80;;;17.20;92.00;;;;;;5225802;27;20567;-66
2024/04/23 10:48:27;;;;;;;2.23;1.00;;;17.20;92.90;;;;;;5238422;27;20317;-65
2024/04/23 10:50:55;;;;;;;1.03;0.60;;;17.40;92.80;;;;;;5220654;27;20287;-66
2024/04/23 10:53:21;;;;;;;1.07;0.77;;;17.40;93.10;;;;;;5217291;27;20317;-66
2024/04/23 10:55:51;;;;;;;1.40;0.80;;;17.40;92.70;;;;;;5213835;27;20238;-66
2024/04/23 10:58:18;;;;;;;2.30;0.87;;;17.80;92.50;;;;;;5242096;27;20234;-65
2024/04/23 11:00:45;;;;;;;1.10;0.83;;;17.80;92.00;;;;;;5240690;27;20293;-65
2024/04/23 11:03:30;;;;;;;1.70;0.83;;;17.70;91.20;;;;;;5219979;27;20270;-65
2024/04/23 11:05:56;;;;;;;0.93;0.60;;;17.40;88.60;;;;;;5239855;27;20336;-66
2024/04/23 11:08:26;;;;;;;1.47;0.80;;;17.70;90.90;;;;;;5234804;27;20238;-65
2024/04/23 11:10:53;;;;;;;1.53;0.70;;;17.90;89.50;;;;;;5240922;27;20241;-66
2024/04/23 11:13:29;;;;;;;1.03;0.67;;;17.80;89.30;;;;;;5241720;27;20788;-66
2024/04/23 11:16:01;;;;;;;0.87;0.67;;;17.90;86.80;;;;;;5209756;27;20290;-66
2024/04/23 11:18:40;;;;;;;1.60;1.00;;;17.30;88.90;;;;;;5233447;27;20335;-65
2024/04/23 11:21:08;;;;;;;1.00;0.80;;;17.00;89.80;;;;;;5229233;27;20236;-65
2024/04/23 11:23:38;;;;;;;1.27;0.57;;;16.40;90.90;;;;;;5234242;27;20650;-65
2024/04/23 11:26:06;;;;;;;1.27;0.90;;;16.10;92.10;;;;;;5221629;27;20269;-65
2024/04/23 11:28:37;;;;;;;1.63;1.07;;;15.60;91.30;;;;;;5228851;27;20396;-66
2024/04/23 11:31:04;;;;;;;1.13;0.77;;;15.20;92.80;;;;;;5233832;27;20239;-67
2024/04/23 11:33:30;;;;;;;1.70;0.70;;;14.90;93.50;;;;;;5233583;27;20324;-66
2024/04/23 11:35:56;;;;;;;1.63;1.03;;;14.20;93.80;;;;;;5240589;27;20249;-66
2024/04/23 11:38:21;;;;;;;1.73;1.30;;;14.10;93.40;;;;;;5241136;27;20290;-66
2024/04/23 11:40:47;;;;;;;1.00;0.90;;;13.90;93.70;;;;;;5239879;27;20296;-65
2024/04/23 11:43:18;;;;;;;1.10;0.70;;;13.80;93.00;;;;;;5236883;27;20234;-65
2024/04/23 11:45:47;;;;;;;1.33;0.73;;;13.60;95.60;;;;;;5232204;27;20726;-65
2024/04/23 11:48:14;;;;;;;3.27;1.00;;;13.60;95.20;;;;;;5255648;27;20245;-65
2024/04/23 11:50:41;;;;;;;1.97;1.00;;;13.30;93.40;;;;;;5239911;27;20324;-68
2024/04/23 11:53:07;;;;;;;1.67;0.80;;;13.50;95.90;;;;;;5240895;27;20246;-65
2024/04/23 11:55:32;;;;;;;3.10;0.53;;;13.80;95.20;;;;;;5227964;27;20305;-66
2024/04/23 11:57:58;;;;;;;1.00;0.60;;;14.30;96.20;;;;;;5239331;27;20847;-65
2024/04/23 12:00:27;;;;;;;2.03;1.00;;;14.50;92.90;;;;;;5239751;27;20284;-67
2024/04/23 12:02:53;;;;;;;1.63;0.70;;;15.00;94.40;;;;;;5240173;27;20285;-65
2024/04/23 12:05:20;;;;;;;0.77;0.70;;;15.60;93.50;;;;;;5239206;27;20723;-66
2024/04/23 12:07:47;;;;;;;3.57;1.00;;;16.00;93.90;;;;;;5238340;27;20284;-68
2024/04/23 12:10:32;;;;;;;1.63;0.77;;;16.30;92.00;;;;;;5227928;27;20785;-63
2024/04/23 12:12:58;;;;;;;0.83;0.63;;;16.20;92.70;;;;;;5240371;27;20353;-64
2024/04/23 12:15:24;;;;;;;1.00;0.67;;;16.00;93.60;;;;;;5229843;27;20624;-65
2024/04/23 12:17:50;;;;;;;0.80;0.53;;;16.70;93.90;;;;;;5236893;27;20569;-64
2024/04/23 12:20:16;;;;;;;1.07;0.70;;;16.80;91.70;;;;;;5239355;27;20256;-63
2024/04/23 12:22:44;;;;;;;0.83;0.60;;;16.50;90.70;;;;;;5240137;27;20245;-64
2024/04/23 12:25:11;;;;;;;2.67;0.90;;;16.00;89.40;;;;;;5233010;27;20349;-64
2024/04/23 12:27:37;;;;;;;1.50;0.93;;;15.30;92.00;;;;;;5233812;27;20234;-66
2024/04/23 12:30:10;;;;;;;1.23;0.70;;;15.20;92.00;;;;;;5219809;27;20766;-65
2024/04/23 12:32:35;;;;;;;3.10;1.07;;;15.00;92.60;;;;;;5219762;27;20280;-66
2024/04/23 12:35:01;;;;;;;1.03;0.80;;;14.80;93.20;;;;;;5234609;27;20239;-66
2024/04/23 12:37:27;;;;;;;1.07;0.70;;;14.60;93.40;;;;;;5231770;27;20288;-65
2024/04/23 12:39:52;;;;;;;0.93;0.73;;;14.60;92.80;;;;;;5236262;27;20723;-64
2024/04/23 12:42:21;;;;;;;2.10;0.97;;;14.70;94.30;;;;;;5220667;27;20235;-66
2024/04/23 12:44:47;;;;;;;1.47;0.93;;;14.90;95.70;;;;;;5235542;27;20274;-66
2024/04/23 12:47:13;;;;;;;1.03;0.70;;;14.80;93.30;;;;;;5239969;27;20237;-67
2024/04/23 12:49:40;;;;;;;1.60;0.70;;;14.80;92.10;;;;;;5226645;27;21090;-64
2024/04/23 12:52:05;;;;;;;1.50;0.60;;;14.50;93.00;;;;;;5239376;27;20237;-66
2024/04/23 12:54:31;;;;;;;2.20;1.13;;;14.30;93.20;;;;;;5238076;27;20694;-67